sensor_id;sensor_type;location;lat;lon;timestamp;pressure;altitude;pressure_sealevel;temperature;humidity
75409;BME280;63979;55.644;37.734;2024-03-17T00:03:56;100429.25;;;0.78;62.86
75409;BME280;63979;55.644;37.734;2024-03-17T00:08:57;100505.19;;;0.92;63.89
75409;BME280;63979;55.644;37.734;2024-03-17T00:13:58;100495.47;;;0.96;63.79
75409;BME280;63979;55.644;37.734;2024-03-17T00:18:59;100496.34;;;0.96;64.08
75409;BME280;63979;55.644;37.734;2024-03-17T00:24:00;100460.09;;;0.67;64.38
75409;BME280;63979;55.644;37.734;2024-03-17T00:29:03;100482.00;;;1.14;63.72
75409;BME280;63979;55.644;37.734;2024-03-17T00:34:04;100466.31;;;1.09;63.63
75409;BME280;63979;55.644;37.734;2024-03-17T00:39:05;100473.22;;;1.15;63.71
75409;BME280;63979;55.644;37.734;2024-03-17T00:44:07;100483.91;;;1.06;63.87
75409;BME280;63979;55.644;37.734;2024-03-17T00:49:12;100464.56;;;1.10;63.41
75409;BME280;63979;55.644;37.734;2024-03-17T00:54:14;100473.59;;;0.95;64.00
75409;BME280;63979;55.644;37.734;2024-03-17T00:59:15;100468.06;;;1.10;63.20
75409;BME280;63979;55.644;37.734;2024-03-17T01:04:16;100472.59;;;1.01;63.93
75409;BME280;63979;55.644;37.734;2024-03-17T01:09:17;100466.63;;;0.92;64.05
75409;BME280;63979;55.644;37.734;2024-03-17T01:14:18;100457.72;;;1.00;64.06
75409;BME280;63979;55.644;37.734;2024-03-17T01:19:19;100451.34;;;1.13;63.39
75409;BME280;63979;55.644;37.734;2024-03-17T01:24:20;100456.75;;;1.07;63.35
75409;BME280;63979;55.644;37.734;2024-03-17T01:29:20;100444.72;;;0.93;63.85
75409;BME280;63979;55.644;37.734;2024-03-17T01:34:21;100448.13;;;0.97;63.96
75409;BME280;63979;55.644;37.734;2024-03-17T01:39:22;100449.31;;;0.82;64.68
75409;BME280;63979;55.644;37.734;2024-03-17T01:44:26;100435.78;;;1.02;63.63
75409;BME280;63979;55.644;37.734;2024-03-17T01:49:27;100442.34;;;0.80;64.83
75409;BME280;63979;55.644;37.734;2024-03-17T01:54:28;100437.88;;;0.85;64.86
75409;BME280;63979;55.644;37.734;2024-03-17T01:59:29;100440.50;;;0.85;64.42
75409;BME280;63979;55.644;37.734;2024-03-17T02:04:30;100439.56;;;0.87;64.42
75409;BME280;63979;55.644;37.734;2024-03-17T02:09:31;100429.94;;;0.88;64.94
75409;BME280;63979;55.644;37.734;2024-03-17T02:14:32;100420.47;;;0.79;64.43
75409;BME280;63979;55.644;37.734;2024-03-17T02:19:33;100407.22;;;0.85;65.10
75409;BME280;63979;55.644;37.734;2024-03-17T02:24:34;100402.78;;;0.87;64.51
75409;BME280;63979;55.644;37.734;2024-03-17T02:29:35;100396.72;;;0.84;64.77
75409;BME280;63979;55.644;37.734;2024-03-17T02:34:39;100401.00;;;0.89;64.20
75409;BME280;63979;55.644;37.734;2024-03-17T02:39:41;100401.03;;;0.88;64.23
75409;BME280;63979;55.644;37.734;2024-03-17T02:44:42;100394.91;;;0.87;63.79
75409;BME280;63979;55.644;37.734;2024-03-17T02:49:43;100382.78;;;0.80;64.50
75409;BME280;63979;55.644;37.734;2024-03-17T02:54:44;100392.28;;;0.87;64.17
75409;BME280;63979;55.644;37.734;2024-03-17T02:59:46;100389.69;;;0.86;64.25
75409;BME280;63979;55.644;37.734;2024-03-17T03:04:47;100358.69;;;0.58;64.68
75409;BME280;63979;55.644;37.734;2024-03-17T03:09:47;100353.63;;;0.49;64.79
75409;BME280;63979;55.644;37.734;2024-03-17T03:14:48;100384.75;;;0.71;64.49
75409;BME280;63979;55.644;37.734;2024-03-17T03:19:49;100353.91;;;0.32;64.77
75409;BME280;63979;55.644;37.734;2024-03-17T03:24:52;100390.22;;;0.58;64.94
75409;BME280;63979;55.644;37.734;2024-03-17T03:29:53;100387.53;;;0.61;64.71
75409;BME280;63979;55.644;37.734;2024-03-17T03:34:56;100385.19;;;0.46;65.42
75409;BME280;63979;55.644;37.734;2024-03-17T03:39:57;100372.91;;;0.48;64.92
75409;BME280;63979;55.644;37.734;2024-03-17T03:44:59;100366.66;;;0.54;64.94
75409;BME280;63979;55.644;37.734;2024-03-17T03:50:00;100363.00;;;0.61;64.81
75409;BME280;63979;55.644;37.734;2024-03-17T03:55:01;100359.34;;;0.71;64.89
75409;BME280;63979;55.644;37.734;2024-03-17T04:00:04;100372.00;;;0.49;65.27
75409;BME280;63979;55.644;37.734;2024-03-17T04:05:13;100362.03;;;0.67;64.57
75409;BME280;63979;55.644;37.734;2024-03-17T04:10:15;100358.38;;;0.75;64.07
75409;BME280;63979;55.644;37.734;2024-03-17T04:15:16;100370.81;;;1.09;63.70
75409;BME280;63979;55.644;37.734;2024-03-17T04:20:17;100357.00;;;1.38;62.51
75409;BME280;63979;55.644;37.734;2024-03-17T04:25:18;100353.72;;;1.67;61.83
75409;BME280;63979;55.644;37.734;2024-03-17T04:30:19;100364.69;;;1.85;61.27
75409;BME280;63979;55.644;37.734;2024-03-17T04:35:20;100361.66;;;2.01;60.85
75409;BME280;63979;55.644;37.734;2024-03-17T04:40:21;100365.56;;;2.20;60.66
75409;BME280;63979;55.644;37.734;2024-03-17T04:45:23;100339.00;;;2.29;59.76
75409;BME280;63979;55.644;37.734;2024-03-17T04:50:23;100361.84;;;2.61;58.24
75409;BME280;63979;55.644;37.734;2024-03-17T04:55:25;100363.56;;;2.93;57.09
75409;BME280;63979;55.644;37.734;2024-03-17T05:00:26;100332.47;;;3.04;55.98
75409;BME280;63979;55.644;37.734;2024-03-17T05:05:26;100355.13;;;4.22;53.44
75409;BME280;63979;55.644;37.734;2024-03-17T05:10:27;100357.41;;;5.51;49.80
75409;BME280;63979;55.644;37.734;2024-03-17T05:15:28;100365.34;;;6.58;46.49
75409;BME280;63979;55.644;37.734;2024-03-17T05:20:29;100370.28;;;7.26;44.38
75409;BME280;63979;55.644;37.734;2024-03-17T05:25:30;100368.63;;;8.16;42.09
75409;BME280;63979;55.644;37.734;2024-03-17T05:30:36;100358.69;;;9.21;40.28
75409;BME280;63979;55.644;37.734;2024-03-17T05:35:36;100361.69;;;10.25;38.03
75409;BME280;63979;55.644;37.734;2024-03-17T05:40:38;100373.13;;;11.02;36.39
75409;BME280;63979;55.644;37.734;2024-03-17T05:45:42;100360.91;;;12.23;34.00
75409;BME280;63979;55.644;37.734;2024-03-17T05:50:44;100367.69;;;12.93;32.56
75409;BME280;63979;55.644;37.734;2024-03-17T05:55:46;100368.88;;;11.69;34.38
75409;BME280;63979;55.644;37.734;2024-03-17T06:00:47;100366.03;;;9.81;37.12
75409;BME280;63979;55.644;37.734;2024-03-17T06:05:48;100366.06;;;8.66;40.16
75409;BME280;63979;55.644;37.734;2024-03-17T06:10:49;100367.28;;;8.07;41.56
75409;BME280;63979;55.644;37.734;2024-03-17T06:15:50;100333.56;;;7.90;41.43
75409;BME280;63979;55.644;37.734;2024-03-17T06:20:52;100350.41;;;8.25;41.56
75409;BME280;63979;55.644;37.734;2024-03-17T06:25:53;100353.31;;;11.61;36.19
75409;BME280;63979;55.644;37.734;2024-03-17T06:30:58;100352.25;;;12.84;33.31
75409;BME280;63979;55.644;37.734;2024-03-17T06:36:10;100344.63;;;15.18;29.17
75409;BME280;63979;55.644;37.734;2024-03-17T06:41:11;100341.06;;;17.11;27.21
75409;BME280;63979;55.644;37.734;2024-03-17T06:46:15;100333.19;;;18.19;24.38
75409;BME280;63979;55.644;37.734;2024-03-17T06:51:16;100325.69;;;19.55;23.29
75409;BME280;63979;55.644;37.734;2024-03-17T06:56:17;100345.78;;;21.56;21.49
75409;BME280;63979;55.644;37.734;2024-03-17T07:01:18;100340.78;;;21.86;20.70
75409;BME280;63979;55.644;37.734;2024-03-17T07:06:20;100344.16;;;22.22;20.43
75409;BME280;63979;55.644;37.734;2024-03-17T07:11:21;100329.38;;;21.82;20.19
75409;BME280;63979;55.644;37.734;2024-03-17T07:16:24;100330.78;;;21.94;20.42
75409;BME280;63979;55.644;37.734;2024-03-17T07:21:27;100309.78;;;22.53;19.91
75409;BME280;63979;55.644;37.734;2024-03-17T07:26:28;100332.91;;;23.14;19.41
75409;BME280;63979;55.644;37.734;2024-03-17T07:31:29;100323.75;;;24.33;17.92
75409;BME280;63979;55.644;37.734;2024-03-17T07:36:30;100324.78;;;22.73;19.00
75409;BME280;63979;55.644;37.734;2024-03-17T07:41:31;100329.84;;;21.27;20.87
75409;BME280;63979;55.644;37.734;2024-03-17T07:46:32;100326.38;;;20.02;21.86
75409;BME280;63979;55.644;37.734;2024-03-17T07:51:32;100321.81;;;18.45;23.40
75409;BME280;63979;55.644;37.734;2024-03-17T07:56:35;100314.03;;;16.60;25.75
75409;BME280;63979;55.644;37.734;2024-03-17T08:01:36;100323.72;;;16.10;26.81
75409;BME280;63979;55.644;37.734;2024-03-17T08:06:41;100314.06;;;15.19;28.11
75409;BME280;63979;55.644;37.734;2024-03-17T08:11:42;100309.50;;;14.29;29.56
75409;BME280;63979;55.644;37.734;2024-03-17T08:16:47;100317.66;;;13.56;31.16
75409;BME280;63979;55.644;37.734;2024-03-17T08:21:48;100295.53;;;12.77;32.71
75409;BME280;63979;55.644;37.734;2024-03-17T08:26:49;100304.66;;;12.49;33.39
75409;BME280;63979;55.644;37.734;2024-03-17T08:31:49;100294.31;;;12.31;33.64
75409;BME280;63979;55.644;37.734;2024-03-17T08:36:50;100295.63;;;12.38;33.86
75409;BME280;63979;55.644;37.734;2024-03-17T08:41:51;100280.50;;;13.13;32.80
75409;BME280;63979;55.644;37.734;2024-03-17T08:46:52;100287.91;;;15.10;29.73
75409;BME280;63979;55.644;37.734;2024-03-17T08:51:53;100289.25;;;16.87;27.42
75409;BME280;63979;55.644;37.734;2024-03-17T08:56:54;100276.69;;;18.74;24.90
75409;BME280;63979;55.644;37.734;2024-03-17T09:01:55;100292.72;;;18.85;24.73
75409;BME280;63979;55.644;37.734;2024-03-17T09:06:56;100286.50;;;18.36;24.84
75409;BME280;63979;55.644;37.734;2024-03-17T09:11:57;100285.31;;;16.91;27.19
75409;BME280;63979;55.644;37.734;2024-03-17T09:16:58;100276.31;;;16.81;27.38
75409;BME280;63979;55.644;37.734;2024-03-17T09:21:59;100268.34;;;17.00;27.10
75409;BME280;63979;55.644;37.734;2024-03-17T09:26:59;100271.69;;;16.93;27.37
75409;BME280;63979;55.644;37.734;2024-03-17T09:32:00;100271.41;;;17.26;27.01
75409;BME280;63979;55.644;37.734;2024-03-17T09:37:01;100274.53;;;16.91;27.61
75409;BME280;63979;55.644;37.734;2024-03-17T09:42:03;100277.97;;;15.67;29.43
75409;BME280;63979;55.644;37.734;2024-03-17T09:47:06;100278.00;;;15.00;30.70
75409;BME280;63979;55.644;37.734;2024-03-17T09:57:19;100259.69;;;16.76;28.50
75409;BME280;63979;55.644;37.734;2024-03-17T10:02:22;100266.69;;;16.26;29.51
75409;BME280;63979;55.644;37.734;2024-03-17T10:07:44;100270.75;;;14.55;32.63
75409;BME280;63979;55.644;37.734;2024-03-17T10:12:53;100258.47;;;13.94;34.05
75409;BME280;63979;55.644;37.734;2024-03-17T10:17:54;100253.69;;;15.01;32.11
75409;BME280;63979;55.644;37.734;2024-03-17T10:23:03;100238.31;;;16.01;30.11
75409;BME280;63979;55.644;37.734;2024-03-17T10:28:15;100237.25;;;20.17;24.83
75409;BME280;63979;55.644;37.734;2024-03-17T10:33:23;100255.84;;;21.07;22.53
75409;BME280;63979;55.644;37.734;2024-03-17T10:38:26;100249.81;;;16.44;29.01
75409;BME280;63979;55.644;37.734;2024-03-17T10:43:28;100239.84;;;16.35;30.04
75409;BME280;63979;55.644;37.734;2024-03-17T10:48:31;100225.75;;;15.90;30.25
75409;BME280;63979;55.644;37.734;2024-03-17T10:53:35;100247.31;;;14.57;32.48
75409;BME280;63979;55.644;37.734;2024-03-17T10:58:38;100233.38;;;16.27;30.45
75409;BME280;63979;55.644;37.734;2024-03-17T11:03:49;100228.25;;;15.27;31.42
75409;BME280;63979;55.644;37.734;2024-03-17T11:08:52;100225.88;;;13.39;34.61
75409;BME280;63979;55.644;37.734;2024-03-17T11:14:15;100230.53;;;13.12;35.58
75409;BME280;63979;55.644;37.734;2024-03-17T11:19:17;100224.19;;;11.46;38.40
75409;BME280;63979;55.644;37.734;2024-03-17T11:24:21;100236.13;;;10.71;40.77
75409;BME280;63979;55.644;37.734;2024-03-17T11:29:29;100232.06;;;10.07;42.22
75409;BME280;63979;55.644;37.734;2024-03-17T11:34:37;100228.88;;;9.09;44.39
75409;BME280;63979;55.644;37.734;2024-03-17T11:39:53;100225.16;;;9.43;44.46
75409;BME280;63979;55.644;37.734;2024-03-17T11:44:59;100209.69;;;8.87;46.28
75409;BME280;63979;55.644;37.734;2024-03-17T11:50:05;100207.47;;;8.79;46.01
75409;BME280;63979;55.644;37.734;2024-03-17T11:55:15;100208.88;;;9.02;46.05
75409;BME280;63979;55.644;37.734;2024-03-17T12:00:20;100206.28;;;9.16;45.62
75409;BME280;63979;55.644;37.734;2024-03-17T12:05:21;100199.88;;;8.56;46.75
75409;BME280;63979;55.644;37.734;2024-03-17T12:10:23;100201.16;;;8.49;47.30
75409;BME280;63979;55.644;37.734;2024-03-17T12:15:24;100200.44;;;8.28;48.68
75409;BME280;63979;55.644;37.734;2024-03-17T12:20:29;100204.59;;;8.66;47.05
75409;BME280;63979;55.644;37.734;2024-03-17T12:25:38;100158.75;;;8.46;47.20
75409;BME280;63979;55.644;37.734;2024-03-17T12:30:40;100171.13;;;8.47;47.46
75409;BME280;63979;55.644;37.734;2024-03-17T12:35:41;100198.88;;;8.74;47.19
75409;BME280;63979;55.644;37.734;2024-03-17T12:40:42;100203.13;;;8.61;47.71
75409;BME280;63979;55.644;37.734;2024-03-17T12:45:43;100135.09;;;7.73;48.64
75409;BME280;63979;55.644;37.734;2024-03-17T12:50:46;100198.31;;;8.01;49.57
75409;BME280;63979;55.644;37.734;2024-03-17T12:55:54;100196.69;;;8.32;48.42
75409;BME280;63979;55.644;37.734;2024-03-17T13:01:13;100189.94;;;8.09;49.58
75409;BME280;63979;55.644;37.734;2024-03-17T13:06:23;100184.50;;;7.77;50.60
75409;BME280;63979;55.644;37.734;2024-03-17T13:11:28;100154.00;;;7.50;49.66
75409;BME280;63979;55.644;37.734;2024-03-17T13:16:30;100177.94;;;7.67;50.00
75409;BME280;63979;55.644;37.734;2024-03-17T13:21:32;100180.19;;;7.58;50.43
75409;BME280;63979;55.644;37.734;2024-03-17T13:26:33;100184.31;;;7.29;51.08
75409;BME280;63979;55.644;37.734;2024-03-17T13:31:34;100166.84;;;7.23;51.01
75409;BME280;63979;55.644;37.734;2024-03-17T13:36:35;100162.25;;;7.27;50.97
75409;BME280;63979;55.644;37.734;2024-03-17T13:41:40;100150.53;;;7.13;50.96
75409;BME280;63979;55.644;37.734;2024-03-17T13:46:41;100161.66;;;7.39;51.22
75409;BME280;63979;55.644;37.734;2024-03-17T13:51:42;100147.91;;;7.48;50.76
75409;BME280;63979;55.644;37.734;2024-03-17T13:56:47;100149.91;;;7.26;51.71
75409;BME280;63979;55.644;37.734;2024-03-17T14:01:49;100148.00;;;7.46;50.90
75409;BME280;63979;55.644;37.734;2024-03-17T14:06:51;100144.25;;;7.50;50.93
75409;BME280;63979;55.644;37.734;2024-03-17T14:11:53;100139.69;;;7.18;51.80
75409;BME280;63979;55.644;37.734;2024-03-17T14:16:53;100138.94;;;7.50;50.70
75409;BME280;63979;55.644;37.734;2024-03-17T14:21:54;100142.31;;;7.71;50.41
75409;BME280;63979;55.644;37.734;2024-03-17T14:26:55;100146.50;;;7.41;51.13
75409;BME280;63979;55.644;37.734;2024-03-17T14:31:57;100138.91;;;7.16;51.89
75409;BME280;63979;55.644;37.734;2024-03-17T14:36:57;100142.03;;;6.88;52.59
75409;BME280;63979;55.644;37.734;2024-03-17T14:41:58;100146.53;;;6.69;53.00
75409;BME280;63979;55.644;37.734;2024-03-17T14:47:01;100144.69;;;6.88;52.22
75409;BME280;63979;55.644;37.734;2024-03-17T14:52:04;100145.75;;;7.03;51.79
75409;BME280;63979;55.644;37.734;2024-03-17T14:57:06;100146.84;;;6.99;52.54
75409;BME280;63979;55.644;37.734;2024-03-17T15:02:07;100121.88;;;7.03;51.72
75409;BME280;63979;55.644;37.734;2024-03-17T15:07:08;100141.78;;;7.11;51.67
75409;BME280;63979;55.644;37.734;2024-03-17T15:12:09;100137.50;;;7.09;51.56
75409;BME280;63979;55.644;37.734;2024-03-17T15:17:10;100137.66;;;7.23;51.39
75409;BME280;63979;55.644;37.734;2024-03-17T15:22:11;100097.13;;;7.02;51.54
75409;BME280;63979;55.644;37.734;2024-03-17T15:27:12;100135.50;;;7.31;51.27
75409;BME280;63979;55.644;37.734;2024-03-17T15:32:13;100128.44;;;7.13;51.10
75409;BME280;63979;55.644;37.734;2024-03-17T15:37:13;100123.22;;;6.93;51.42
75409;BME280;63979;55.644;37.734;2024-03-17T15:42:14;100142.97;;;6.87;51.98
75409;BME280;63979;55.644;37.734;2024-03-17T15:47:16;100140.28;;;6.32;53.83
75409;BME280;63979;55.644;37.734;2024-03-17T15:52:17;100133.13;;;6.34;53.41
75409;BME280;63979;55.644;37.734;2024-03-17T15:57:18;100135.06;;;6.31;53.72
75409;BME280;63979;55.644;37.734;2024-03-17T16:02:19;100140.66;;;6.24;53.60
75409;BME280;63979;55.644;37.734;2024-03-17T16:07:20;100146.03;;;6.03;54.35
75409;BME280;63979;55.644;37.734;2024-03-17T16:12:22;100150.63;;;6.18;54.17
75409;BME280;63979;55.644;37.734;2024-03-17T16:17:24;100146.84;;;6.05;54.45
75409;BME280;63979;55.644;37.734;2024-03-17T16:22:26;100149.47;;;5.84;55.06
75409;BME280;63979;55.644;37.734;2024-03-17T16:27:27;100157.00;;;6.14;54.44
75409;BME280;63979;55.644;37.734;2024-03-17T16:32:28;100144.28;;;5.81;54.40
75409;BME280;63979;55.644;37.734;2024-03-17T16:37:29;100141.19;;;6.12;54.01
75409;BME280;63979;55.644;37.734;2024-03-17T16:42:30;100144.75;;;6.11;53.98
75409;BME280;63979;55.644;37.734;2024-03-17T16:47:32;100143.88;;;5.92;54.68
75409;BME280;63979;55.644;37.734;2024-03-17T16:52:36;100138.94;;;5.83;54.64
75409;BME280;63979;55.644;37.734;2024-03-17T16:57:37;100148.69;;;6.03;54.21
75409;BME280;63979;55.644;37.734;2024-03-17T17:02:39;100144.59;;;5.96;54.48
75409;BME280;63979;55.644;37.734;2024-03-17T17:07:42;100146.84;;;6.05;54.61
75409;BME280;63979;55.644;37.734;2024-03-17T17:12:44;100134.38;;;6.07;54.28
75409;BME280;63979;55.644;37.734;2024-03-17T17:17:45;100139.75;;;6.24;53.79
75409;BME280;63979;55.644;37.734;2024-03-17T17:22:55;100131.38;;;6.14;54.09
75409;BME280;63979;55.644;37.734;2024-03-17T17:27:55;100144.00;;;6.28;53.98
75409;BME280;63979;55.644;37.734;2024-03-17T17:32:58;100150.34;;;6.24;54.26
75409;BME280;63979;55.644;37.734;2024-03-17T17:37:59;100152.31;;;5.80;54.91
75409;BME280;63979;55.644;37.734;2024-03-17T17:43:01;100133.19;;;5.73;54.83
75409;BME280;63979;55.644;37.734;2024-03-17T17:48:02;100144.84;;;5.89;54.54
75409;BME280;63979;55.644;37.734;2024-03-17T17:53:04;100151.25;;;5.84;54.82
75409;BME280;63979;55.644;37.734;2024-03-17T17:58:05;100132.06;;;5.79;54.80
75409;BME280;63979;55.644;37.734;2024-03-17T18:03:06;100144.28;;;5.81;56.47
75409;BME280;63979;55.644;37.734;2024-03-17T18:08:07;100153.44;;;5.33;56.15
75409;BME280;63979;55.644;37.734;2024-03-17T18:13:08;100152.59;;;5.74;55.81
75409;BME280;63979;55.644;37.734;2024-03-17T18:18:10;100118.63;;;5.63;55.32
75409;BME280;63979;55.644;37.734;2024-03-17T18:23:11;100153.31;;;5.77;55.00
75409;BME280;63979;55.644;37.734;2024-03-17T18:28:12;100140.78;;;5.40;55.41
75409;BME280;63979;55.644;37.734;2024-03-17T18:33:17;100158.78;;;5.52;56.31
75409;BME280;63979;55.644;37.734;2024-03-17T18:38:20;100155.56;;;5.66;56.22
75409;BME280;63979;55.644;37.734;2024-03-17T18:43:21;100150.44;;;5.82;55.29
75409;BME280;63979;55.644;37.734;2024-03-17T18:48:22;100128.88;;;5.50;56.29
75409;BME280;63979;55.644;37.734;2024-03-17T18:53:23;100154.09;;;5.39;56.97
75409;BME280;63979;55.644;37.734;2024-03-17T18:58:24;100140.00;;;5.38;56.62
75409;BME280;63979;55.644;37.734;2024-03-17T19:03:25;100151.63;;;5.34;57.42
75409;BME280;63979;55.644;37.734;2024-03-17T19:08:44;100148.19;;;5.52;56.66
75409;BME280;63979;55.644;37.734;2024-03-17T19:13:46;100156.16;;;5.10;57.98
75409;BME280;63979;55.644;37.734;2024-03-17T19:18:47;100154.06;;;4.96;58.53
75409;BME280;63979;55.644;37.734;2024-03-17T19:23:48;100158.47;;;5.18;58.11
75409;BME280;63979;55.644;37.734;2024-03-17T19:28:49;100145.94;;;5.01;58.83
75409;BME280;63979;55.644;37.734;2024-03-17T19:33:50;100145.06;;;4.79;59.55
75409;BME280;63979;55.644;37.734;2024-03-17T19:38:51;100134.25;;;4.85;59.06
75409;BME280;63979;55.644;37.734;2024-03-17T19:43:52;100149.44;;;5.01;58.86
75409;BME280;63979;55.644;37.734;2024-03-17T19:48:56;100116.56;;;4.87;58.77
75409;BME280;63979;55.644;37.734;2024-03-17T19:53:57;100142.75;;;4.93;59.14
75409;BME280;63979;55.644;37.734;2024-03-17T19:58:58;100143.84;;;5.09;58.87
75409;BME280;63979;55.644;37.734;2024-03-17T20:03:59;100141.75;;;4.74;60.16
75409;BME280;63979;55.644;37.734;2024-03-17T20:09:00;100142.75;;;4.93;59.92
75409;BME280;63979;55.644;37.734;2024-03-17T20:14:01;100145.47;;;4.91;59.49
75409;BME280;63979;55.644;37.734;2024-03-17T20:19:03;100147.66;;;5.02;59.47
75409;BME280;63979;55.644;37.734;2024-03-17T20:24:04;100150.94;;;4.87;59.88
75409;BME280;63979;55.644;37.734;2024-03-17T20:29:06;100152.09;;;5.01;59.69
75409;BME280;63979;55.644;37.734;2024-03-17T20:34:07;100149.53;;;5.00;59.77
75409;BME280;63979;55.644;37.734;2024-03-17T20:39:09;100137.94;;;5.24;59.12
75409;BME280;63979;55.644;37.734;2024-03-17T20:44:11;100140.66;;;5.23;59.78
75409;BME280;63979;55.644;37.734;2024-03-17T20:49:12;100139.78;;;5.00;60.15
75409;BME280;63979;55.644;37.734;2024-03-17T20:54:13;100152.09;;;5.01;60.00
75409;BME280;63979;55.644;37.734;2024-03-17T20:59:15;100117.97;;;4.74;60.35
75409;BME280;63979;55.644;37.734;2024-03-17T21:04:17;100138.47;;;4.90;60.33
75409;BME280;63979;55.644;37.734;2024-03-17T21:09:18;100144.09;;;5.03;60.25
75409;BME280;63979;55.644;37.734;2024-03-17T21:14:19;100140.41;;;5.07;60.53
75409;BME280;63979;55.644;37.734;2024-03-17T21:19:20;100143.47;;;4.75;60.88
75409;BME280;63979;55.644;37.734;2024-03-17T21:24:21;100138.00;;;4.79;61.13
75409;BME280;63979;55.644;37.734;2024-03-17T21:29:22;100138.75;;;4.61;61.82
75409;BME280;63979;55.644;37.734;2024-03-17T21:34:23;100145.06;;;4.79;61.68
75409;BME280;63979;55.644;37.734;2024-03-17T21:39:25;100108.31;;;4.73;61.09
75409;BME280;63979;55.644;37.734;2024-03-17T21:44:28;100137.88;;;4.82;61.48
75409;BME280;63979;55.644;37.734;2024-03-17T21:49:29;100136.53;;;4.94;61.02
75409;BME280;63979;55.644;37.734;2024-03-17T21:54:30;100138.81;;;5.03;60.88
75409;BME280;63979;55.644;37.734;2024-03-17T21:59:31;100142.75;;;4.93;61.38
75409;BME280;63979;55.644;37.734;2024-03-17T22:04:34;100143.94;;;4.86;61.71
75409;BME280;63979;55.644;37.734;2024-03-17T22:09:35;100120.63;;;4.50;62.66
75409;BME280;63979;55.644;37.734;2024-03-17T22:14:36;100140.34;;;4.65;62.81
75409;BME280;63979;55.644;37.734;2024-03-17T22:19:37;100131.78;;;4.80;62.11
75409;BME280;63979;55.644;37.734;2024-03-17T22:24:38;100097.06;;;4.67;61.65
75409;BME280;63979;55.644;37.734;2024-03-17T22:29:39;100141.91;;;4.92;61.73
75409;BME280;63979;55.644;37.734;2024-03-17T22:34:40;100141.31;;;4.84;62.09
75409;BME280;63979;55.644;37.734;2024-03-17T22:39:41;100147.31;;;4.89;61.92
75409;BME280;63979;55.644;37.734;2024-03-17T22:44:42;100092.94;;;4.60;62.06
75409;BME280;63979;55.644;37.734;2024-03-17T22:49:43;100144.22;;;5.00;62.00
75409;BME280;63979;55.644;37.734;2024-03-17T22:54:44;100148.72;;;4.98;61.90
75409;BME280;63979;55.644;37.734;2024-03-17T22:59:45;100137.59;;;4.90;62.23
75409;BME280;63979;55.644;37.734;2024-03-17T23:04:45;100136.72;;;4.89;62.03
75409;BME280;63979;55.644;37.734;2024-03-17T23:09:47;100135.69;;;4.93;61.75
75409;BME280;63979;55.644;37.734;2024-03-17T23:14:49;100136.09;;;4.83;62.21
75409;BME280;63979;55.644;37.734;2024-03-17T23:19:50;100143.22;;;4.81;62.92
75409;BME280;63979;55.644;37.734;2024-03-17T23:24:53;100137.72;;;4.87;62.53
75409;BME280;63979;55.644;37.734;2024-03-17T23:29:54;100145.59;;;4.88;62.62
75409;BME280;63979;55.644;37.734;2024-03-17T23:34:55;100139.78;;;4.79;62.78
75409;BME280;63979;55.644;37.734;2024-03-17T23:40:01;100141.38;;;4.83;62.90
75409;BME280;63979;55.644;37.734;2024-03-17T23:45:04;100146.66;;;4.83;62.55
75409;BME280;63979;55.644;37.734;2024-03-17T23:50:06;100132.66;;;4.81;62.74
75409;BME280;63979;55.644;37.734;2024-03-17T23:55:07;100144.09;;;4.81;62.46
